Bay Celebrations — WBDO — position and weather

sailwx.info

Track history (hours):
 
Tides and Currents Weather Stations Pressure Air Temp Water Temp Dewpoint Dewpoint Depression Visibility Wind Speed Wind Dir Waves Ship Positions

Bay Celebrations

Owner: Kuma Products Inc., Grass Valley, CA. More information available from US FCC via Universal Licensing System and Coast Guard Vessel Documentation Center.

Last reported at 2018-Feb-15 07:27 UTC. Time now 2018-Feb-19 08:31 UTC.
Position N 37°47' W 122°15'.

Length 20 m; draft 2 m.

Type: Passenger vessel. MMSI: 366878250.

Date/timePositionNaut miles runAvg speedWind from/ knotsBaromVisibWave heightAir tempDewpointWater temp
2018-Feb-15 07:27N 37°47' W 122°15'2 4.3
2018-Feb-15 07:01N 37°48' W 122°17'4 7.0
2018-Feb-15 06:30N 37°48' W 122°21'2 3.7
2018-Feb-15 06:01N 37°47' W 122°23'1 2.8
2018-Feb-15 05:30N 37°48' W 122°24'2 3.0
2018-Feb-15 05:00N 37°47' W 122°23'1 1.1
2018-Feb-15 04:30N 37°46' W 122°23'1 1.2
2018-Feb-15 04:00N 37°47' W 122°23'0 0.0
2018-Feb-15 03:29N 37°47' W 122°23'2 4.6
2018-Feb-15 03:01N 37°48' W 122°21'3 5.6
2018-Feb-15 02:31N 37°48' W 122°17'  
2018-Feb-11 08:53N 37°47' W 122°15'2 4.2
2018-Feb-11 08:30N 37°47' W 122°16'0 0.8
2018-Feb-11 08:00N 37°48' W 122°17'2 3.4
2018-Feb-11 07:30N 37°48' W 122°19'2 4.6
2018-Feb-11 07:00N 37°48' W 122°22'2 3.2
2018-Feb-11 06:30N 37°48' W 122°24'2 4.2
2018-Feb-11 06:00N 37°48' W 122°21'3 5.0
2018-Feb-11 05:30N 37°47' W 122°18'1 2.1
2018-Feb-11 05:00N 37°48' W 122°17'0 0.0
2018-Feb-11 04:30N 37°48' W 122°17'0 0.0
2018-Feb-11 04:00N 37°48' W 122°17'2 3.3
2018-Feb-11 03:30N 37°48' W 122°19'2 5.0
2018-Feb-11 03:00N 37°47' W 122°22'2 3.5
2018-Feb-11 02:30N 37°48' W 122°24'2 3.6
2018-Feb-11 02:00N 37°47' W 122°22'2 4.9
2018-Feb-11 01:30N 37°48' W 122°19'2 3.0
2018-Feb-11 01:00N 37°48' W 122°17'0 0.3
2018-Feb-11 00:30N 37°48' W 122°17'0 0.1
2018-Feb-11 00:00N 37°48' W 122°17'2 3.6
2018-Feb-10 23:30N 37°47' W 122°15'0 0.1
2018-Feb-10 23:00N 37°47' W 122°15'  
Track history (hours):
 
Tides and Currents Weather Stations Pressure Air Temp Water Temp Dewpoint Dewpoint Depression Visibility Wind Speed Wind Dir Waves Ship Positions

Bay Celebrations

Owner: Kuma Products Inc., Grass Valley, CA. More information available from US FCC via Universal Licensing System and Coast Guard Vessel Documentation Center.

Last reported at 2018-Feb-15 07:27 UTC. Time now 2018-Feb-19 08:31 UTC.
Position N 37°47' W 122°15'.

Length 20 m; draft 2 m.

Type: Passenger vessel. MMSI: 366878250.

Date/timePositionNaut miles runAvg speedWind from/ knotsBaromVisibWave heightAir tempDewpointWater temp
2018-Feb-15 07:27N 37°47' W 122°15'2 4.3
2018-Feb-15 07:01N 37°48' W 122°17'4 7.0
2018-Feb-15 06:30N 37°48' W 122°21'2 3.7
2018-Feb-15 06:01N 37°47' W 122°23'1 2.8
2018-Feb-15 05:30N 37°48' W 122°24'2 3.0
2018-Feb-15 05:00N 37°47' W 122°23'1 1.1
2018-Feb-15 04:30N 37°46' W 122°23'1 1.2
2018-Feb-15 04:00N 37°47' W 122°23'0 0.0
2018-Feb-15 03:29N 37°47' W 122°23'2 4.6
2018-Feb-15 03:01N 37°48' W 122°21'3 5.6
2018-Feb-15 02:31N 37°48' W 122°17'  
2018-Feb-11 08:53N 37°47' W 122°15'2 4.2
2018-Feb-11 08:30N 37°47' W 122°16'0 0.8
2018-Feb-11 08:00N 37°48' W 122°17'2 3.4
2018-Feb-11 07:30N 37°48' W 122°19'2 4.6
2018-Feb-11 07:00N 37°48' W 122°22'2 3.2
2018-Feb-11 06:30N 37°48' W 122°24'2 4.2
2018-Feb-11 06:00N 37°48' W 122°21'3 5.0
2018-Feb-11 05:30N 37°47' W 122°18'1 2.1
2018-Feb-11 05:00N 37°48' W 122°17'0 0.0
2018-Feb-11 04:30N 37°48' W 122°17'0 0.0
2018-Feb-11 04:00N 37°48' W 122°17'2 3.3
2018-Feb-11 03:30N 37°48' W 122°19'2 5.0
2018-Feb-11 03:00N 37°47' W 122°22'2 3.5
2018-Feb-11 02:30N 37°48' W 122°24'2 3.6
2018-Feb-11 02:00N 37°47' W 122°22'2 4.9
2018-Feb-11 01:30N 37°48' W 122°19'2 3.0
2018-Feb-11 01:00N 37°48' W 122°17'0 0.3
2018-Feb-11 00:30N 37°48' W 122°17'0 0.1
2018-Feb-11 00:00N 37°48' W 122°17'2 3.6
2018-Feb-10 23:30N 37°47' W 122°15'0 0.1
2018-Feb-10 23:00N 37°47' W 122°15'  

Dump ship's entire track history